createdAt,value
2019-02-25T00:01:48.735Z,53.59
2019-02-25T00:04:18.977Z,53.45
2019-02-25T00:06:49.185Z,53.40
2019-02-25T00:09:19.441Z,53.75
2019-02-25T00:11:49.647Z,53.49
2019-02-25T00:14:19.897Z,54.30
2019-02-25T00:16:50.085Z,54.24
2019-02-25T00:19:20.348Z,53.91
2019-02-25T00:21:50.549Z,54.07
2019-02-25T00:24:20.796Z,54.42
2019-02-25T00:26:51.025Z,53.90
2019-02-25T00:29:21.260Z,54.41
2019-02-25T00:31:51.484Z,54.46
2019-02-25T00:34:21.727Z,54.07
2019-02-25T00:36:51.960Z,54.48
2019-02-25T00:39:22.211Z,54.54
2019-02-25T00:41:52.324Z,53.62
2019-02-25T00:44:22.593Z,54.01
2019-02-25T00:46:52.797Z,54.55
2019-02-25T00:49:22.992Z,54.53
2019-02-25T00:51:53.186Z,54.16
2019-02-25T00:54:23.460Z,54.91
2019-02-25T00:56:53.648Z,54.62
2019-02-25T00:59:24.874Z,54.71
2019-02-25T01:01:55.080Z,54.59
2019-02-25T01:04:25.260Z,54.54
2019-02-25T01:06:55.462Z,54.56
2019-02-25T01:09:25.708Z,54.87
2019-02-25T01:11:55.820Z,54.33
2019-02-25T01:14:25.993Z,54.52
2019-02-25T01:16:56.122Z,54.96
2019-02-25T01:19:26.225Z,54.75
2019-02-25T01:21:56.430Z,54.58
2019-02-25T01:24:26.661Z,55.30
2019-02-25T01:26:56.794Z,55.31
2019-02-25T01:29:27.053Z,55.64
2019-02-25T01:31:57.173Z,56.10
2019-02-25T01:34:27.414Z,55.78
2019-02-25T01:36:57.607Z,56.36
2019-02-25T01:39:27.800Z,56.73
2019-02-25T01:41:58.005Z,56.79
2019-02-25T01:44:28.176Z,56.81
2019-02-25T01:46:58.327Z,57.35
2019-02-25T01:49:28.482Z,57.26
2019-02-25T01:51:58.672Z,57.26
2019-02-25T01:54:28.767Z,57.78
2019-02-25T01:56:58.905Z,58.14
2019-02-25T01:59:30.033Z,57.57
2019-02-25T02:02:00.175Z,57.08
2019-02-25T02:04:30.345Z,57.58
2019-02-25T02:07:00.470Z,57.53
2019-02-25T02:09:30.719Z,57.61
2019-02-25T02:12:00.785Z,57.39
2019-02-25T02:14:31.014Z,57.28
2019-02-25T02:17:01.207Z,57.34
2019-02-25T02:19:31.474Z,57.54
2019-02-25T02:22:01.679Z,57.83
2019-02-25T02:24:31.862Z,57.15
2019-02-25T02:27:02.000Z,56.98
2019-02-25T02:29:32.257Z,56.66
2019-02-25T02:32:02.475Z,56.46
2019-02-25T02:34:32.720Z,56.38
2019-02-25T02:37:02.860Z,56.67
2019-02-25T02:39:33.119Z,56.97
2019-02-25T02:42:17.904Z,56.75
2019-02-25T02:44:50.372Z,56.71
2019-02-25T02:47:23.525Z,57.20
2019-02-25T02:49:53.711Z,57.44
2019-02-25T02:52:23.905Z,57.17
2019-02-25T02:54:54.145Z,57.16
2019-02-25T02:57:24.355Z,57.07
2019-02-25T02:59:55.652Z,56.63
2019-02-25T03:02:25.877Z,56.59
2019-02-25T03:04:56.121Z,56.64
2019-02-25T03:07:26.306Z,56.93
2019-02-25T03:09:58.800Z,57.02
2019-02-25T03:12:28.443Z,56.35
2019-02-25T03:14:58.669Z,56.57
2019-02-25T03:17:28.868Z,56.61
2019-02-25T03:19:59.100Z,57.23
2019-02-25T03:22:29.397Z,57.90
2019-02-25T03:24:59.561Z,57.79
2019-02-25T03:27:29.763Z,58.60
2019-02-25T03:29:59.920Z,58.78
2019-02-25T03:32:30.086Z,59.19
2019-02-25T03:35:00.321Z,59.08
2019-02-25T03:37:30.420Z,59.59
2019-02-25T03:40:00.602Z,60.46
2019-02-25T03:42:30.775Z,60.22
2019-02-25T03:45:00.860Z,60.15
2019-02-25T03:47:30.911Z,60.37
2019-02-25T03:50:01.092Z,60.28
2019-02-25T03:52:31.213Z,60.69
2019-02-25T03:55:01.410Z,61.04
2019-02-25T03:57:31.588Z,60.97
2019-02-25T04:00:02.689Z,60.79
2019-02-25T04:02:32.810Z,60.78
2019-02-25T04:05:03.070Z,60.91
2019-02-25T04:07:33.257Z,60.94
2019-02-25T04:10:04.506Z,61.33
2019-02-25T04:12:34.705Z,61.30
2019-02-25T04:15:08.145Z,61.66
2019-02-25T04:17:38.316Z,61.61
2019-02-25T04:20:13.730Z,61.67
2019-02-25T04:22:43.953Z,61.94
2019-02-25T04:25:14.589Z,61.86
2019-02-25T04:27:44.802Z,62.20
2019-02-25T04:30:16.162Z,62.31
2019-02-25T04:32:46.295Z,62.15
2019-02-25T04:35:16.553Z,62.58
2019-02-25T04:37:46.764Z,62.77
2019-02-25T04:40:17.033Z,62.63
2019-02-25T04:42:47.215Z,62.80
2019-02-25T04:45:21.229Z,62.63
2019-02-25T04:47:51.610Z,62.58
2019-02-25T04:50:21.852Z,62.83
2019-02-25T04:52:52.068Z,62.82
2019-02-25T04:55:22.317Z,62.87
2019-02-25T04:57:52.511Z,62.77
2019-02-25T05:00:25.850Z,62.39
2019-02-25T05:02:56.053Z,62.28
2019-02-25T05:05:26.298Z,62.95
2019-02-25T05:07:56.434Z,62.74
2019-02-25T05:10:26.684Z,62.35
2019-02-25T05:12:58.448Z,62.54
2019-02-25T05:15:30.290Z,62.88
2019-02-25T05:18:00.489Z,62.72
2019-02-25T05:20:30.720Z,63.03
2019-02-25T05:23:00.940Z,63.01
2019-02-25T05:25:31.193Z,62.93
2019-02-25T05:28:01.318Z,63.13
2019-02-25T05:30:31.555Z,62.98
2019-02-25T05:33:01.734Z,63.04
2019-02-25T05:35:31.919Z,63.28
2019-02-25T05:38:01.947Z,63.22
2019-02-25T05:40:32.126Z,63.08
2019-02-25T05:43:02.301Z,62.86
2019-02-25T05:45:32.539Z,62.86
2019-02-25T05:48:02.738Z,63.05
2019-02-25T05:50:32.911Z,62.57
2019-02-25T05:53:02.966Z,62.79
2019-02-25T05:55:33.138Z,62.70
2019-02-25T05:58:03.363Z,62.74
2019-02-25T06:00:35.649Z,62.95
2019-02-25T06:03:05.700Z,62.49
2019-02-25T06:05:38.405Z,62.61
2019-02-25T06:08:08.501Z,62.51
2019-02-25T06:10:38.599Z,62.41
2019-02-25T06:13:08.776Z,62.75
2019-02-25T06:15:38.909Z,62.36
2019-02-25T06:18:09.044Z,62.34
2019-02-25T06:20:39.209Z,62.51
2019-02-25T06:23:09.394Z,62.53
2019-02-25T06:25:39.929Z,62.11
2019-02-25T06:28:10.010Z,62.85
2019-02-25T06:30:40.210Z,62.64
2019-02-25T06:33:10.409Z,62.36
2019-02-25T06:35:40.570Z,62.17
2019-02-25T06:38:10.785Z,62.22
2019-02-25T06:40:41.061Z,62.37
2019-02-25T06:43:11.278Z,62.00
2019-02-25T06:45:41.520Z,62.11
2019-02-25T06:48:11.743Z,62.32
2019-02-25T06:50:42.000Z,62.03
2019-02-25T06:53:12.208Z,62.04
2019-02-25T06:55:42.462Z,62.00
2019-02-25T06:58:12.670Z,61.93
2019-02-25T07:00:43.883Z,61.65
2019-02-25T07:03:14.076Z,61.88
2019-02-25T07:05:48.827Z,61.44
2019-02-25T07:08:20.600Z,61.21
2019-02-25T07:11:08.555Z,61.31
2019-02-25T07:13:49.108Z,60.91
2019-02-25T07:16:23.886Z,60.96
2019-02-25T07:19:01.619Z,61.14
2019-02-25T07:21:42.148Z,61.49
2019-02-25T07:24:31.769Z,61.51
2019-02-25T07:27:06.259Z,61.66
2019-02-25T07:29:41.004Z,61.30
2019-02-25T07:32:12.843Z,61.55
2019-02-25T07:34:44.624Z,61.42
2019-02-25T07:37:19.388Z,61.35
2019-02-25T07:39:51.146Z,61.57
2019-02-25T07:42:37.663Z,61.45
2019-02-25T07:45:16.902Z,62.13
2019-02-25T07:47:48.728Z,61.76
2019-02-25T07:50:26.546Z,62.01
2019-02-25T07:52:58.238Z,61.70
2019-02-25T07:55:30.012Z,62.08
2019-02-25T07:58:16.816Z,61.79
2019-02-25T08:00:52.449Z,62.44
2019-02-25T08:03:26.819Z,62.02
2019-02-25T08:06:16.594Z,61.72
2019-02-25T08:09:04.810Z,61.65
2019-02-25T08:11:36.456Z,61.10
2019-02-25T08:14:13.601Z,60.94
2019-02-25T08:16:54.089Z,60.19
2019-02-25T08:19:40.753Z,59.79
2019-02-25T08:22:27.552Z,59.43
2019-02-25T08:25:17.719Z,59.30
2019-02-25T08:28:01.174Z,59.68
2019-02-25T08:30:34.418Z,59.23
2019-02-25T08:33:12.176Z,59.64
2019-02-25T08:36:04.892Z,58.81
2019-02-25T08:38:54.521Z,58.83
2019-02-25T08:41:29.092Z,58.01
2019-02-25T08:44:01.066Z,57.48
2019-02-25T08:46:33.032Z,57.86
2019-02-25T08:49:04.832Z,57.74
2019-02-25T08:51:35.092Z,57.36
2019-02-25T08:54:05.294Z,57.63
2019-02-25T08:56:35.611Z,57.64
2019-02-25T08:59:05.820Z,57.04
2019-02-25T09:01:37.132Z,57.32
2019-02-25T09:04:07.331Z,57.84
2019-02-25T09:06:37.604Z,57.67
2019-02-25T09:09:09.307Z,56.02
2019-02-25T09:11:40.552Z,55.47
2019-02-25T09:14:10.766Z,54.41
2019-02-25T09:16:41.490Z,53.61
2019-02-25T09:19:11.744Z,53.09
2019-02-25T09:21:42.331Z,52.92
2019-02-25T09:24:12.508Z,53.21
2019-02-25T09:26:42.790Z,52.95
2019-02-25T09:29:12.965Z,54.04
2019-02-25T09:31:43.235Z,54.62
2019-02-25T09:34:13.447Z,54.99
2019-02-25T09:36:43.705Z,54.91
2019-02-25T09:39:16.597Z,55.02
2019-02-25T09:41:46.398Z,54.15
2019-02-25T09:44:16.604Z,52.82
2019-02-25T09:46:46.933Z,52.56
2019-02-25T09:49:18.573Z,53.31
2019-02-25T09:51:49.397Z,53.53
2019-02-25T09:54:20.880Z,53.98
2019-02-25T09:56:51.295Z,54.41
2019-02-25T09:59:24.367Z,55.11
2019-02-25T10:02:06.816Z,55.27
2019-02-25T10:04:38.309Z,55.23
2019-02-25T10:07:09.477Z,55.42
2019-02-25T10:09:40.914Z,55.12
2019-02-25T10:12:13.227Z,55.96
2019-02-25T10:14:46.379Z,56.26
2019-02-25T10:17:23.486Z,56.26
2019-02-25T10:19:48.668Z,56.06
2019-02-25T10:22:18.936Z,56.16
2019-02-25T10:24:49.048Z,56.41
2019-02-25T10:27:20.838Z,56.88
2019-02-25T10:29:51.273Z,57.51
2019-02-25T10:32:25.231Z,57.40
2019-02-25T10:34:58.646Z,57.40
2019-02-25T10:37:31.023Z,58.13
2019-02-25T10:40:12.911Z,57.68
2019-02-25T10:42:48.976Z,58.04
2019-02-25T10:45:25.067Z,58.69
2019-02-25T10:47:58.595Z,59.25
2019-02-25T10:50:30.986Z,58.22
2019-02-25T10:53:03.692Z,58.66
2019-02-25T10:55:39.959Z,58.85
2019-02-25T10:58:11.102Z,58.80
2019-02-25T11:00:42.128Z,58.79
2019-02-25T11:03:15.308Z,58.24
2019-02-25T11:05:47.030Z,57.96
2019-02-25T11:08:18.931Z,57.22
2019-02-25T11:10:52.876Z,57.37
2019-02-25T11:13:22.730Z,57.78
2019-02-25T11:15:52.924Z,58.77
2019-02-25T11:18:26.650Z,59.46
2019-02-25T11:20:58.959Z,59.48
2019-02-25T11:23:29.545Z,59.91
2019-02-25T11:26:02.209Z,60.10
2019-02-25T11:28:34.344Z,59.92
2019-02-25T11:31:07.369Z,59.79
2019-02-25T11:34:15.649Z,60.44
2019-02-25T11:36:45.878Z,60.56
2019-02-25T11:39:17.115Z,60.54
2019-02-25T11:41:47.738Z,60.88
2019-02-25T11:44:21.092Z,60.92
2019-02-25T11:46:51.105Z,60.85
2019-02-25T11:49:22.871Z,61.07
2019-02-25T11:51:53.192Z,60.82
2019-02-25T11:54:24.315Z,60.60
2019-02-25T11:56:54.585Z,60.78
2019-02-25T11:59:26.409Z,60.79
2019-02-25T12:01:56.540Z,60.71
2019-02-25T12:04:30.938Z,61.03
2019-02-25T12:07:01.081Z,60.45
2019-02-25T12:09:32.874Z,60.56
2019-02-25T12:12:03.118Z,60.56
2019-02-25T12:14:33.433Z,60.88
2019-02-25T12:17:05.148Z,60.74
2019-02-25T12:19:35.319Z,61.01
2019-02-25T12:22:05.514Z,60.64
2019-02-25T12:24:38.532Z,60.91
2019-02-25T12:27:09.000Z,60.94
2019-02-25T12:29:39.676Z,60.80
2019-02-25T12:32:11.658Z,60.89
2019-02-25T12:34:41.944Z,61.28
2019-02-25T12:37:12.174Z,60.96
2019-02-25T12:39:42.382Z,60.89
2019-02-25T12:42:12.481Z,61.44
2019-02-25T12:44:42.973Z,60.87
2019-02-25T12:47:13.281Z,61.12
2019-02-25T12:49:43.652Z,61.25
2019-02-25T12:52:13.866Z,61.16
2019-02-25T12:54:44.126Z,61.01
2019-02-25T12:57:14.447Z,61.36
2019-02-25T12:59:44.799Z,61.37
2019-02-25T13:02:14.931Z,61.81
2019-02-25T13:04:45.242Z,61.78
2019-02-25T13:07:15.358Z,62.03
2019-02-25T13:09:45.850Z,61.69
2019-02-25T13:12:15.980Z,61.55
2019-02-25T13:14:46.210Z,61.84
2019-02-25T13:17:16.427Z,61.94
2019-02-25T13:19:46.779Z,62.33
2019-02-25T13:22:17.620Z,62.37
2019-02-25T13:24:49.955Z,62.31
2019-02-25T13:27:20.126Z,62.42
2019-02-25T13:29:50.504Z,62.67
2019-02-25T13:32:20.696Z,62.63
2019-02-25T13:34:51.263Z,62.42
2019-02-25T13:37:21.525Z,62.26
2019-02-25T13:39:51.931Z,62.46
2019-02-25T13:42:23.569Z,62.31
2019-02-25T13:44:53.953Z,62.58
2019-02-25T13:47:30.396Z,62.05
2019-02-25T13:50:00.739Z,62.54
2019-02-25T13:52:30.967Z,62.42
2019-02-25T13:55:01.335Z,62.06
2019-02-25T13:57:31.583Z,62.35
2019-02-25T14:00:02.215Z,62.32
2019-02-25T14:02:36.032Z,62.41
2019-02-25T14:05:06.711Z,62.07
2019-02-25T14:07:38.494Z,63.22
2019-02-25T14:10:11.516Z,62.68
2019-02-25T14:12:43.862Z,62.50
2019-02-25T14:15:23.129Z,62.27
2019-02-25T14:17:53.315Z,62.37
2019-02-25T14:20:24.874Z,63.14
2019-02-25T14:23:00.246Z,62.58
2019-02-25T14:25:33.583Z,62.78
2019-02-25T14:28:07.934Z,63.15
2019-02-25T14:30:37.465Z,63.50
2019-02-25T14:33:12.782Z,63.44
2019-02-25T14:35:59.111Z,63.61
2019-02-25T14:38:41.439Z,63.80
2019-02-25T14:41:21.075Z,63.95
2019-02-25T14:43:51.555Z,63.90
2019-02-25T14:46:24.943Z,64.25
2019-02-25T14:48:54.842Z,63.98
2019-02-25T14:51:25.183Z,64.24
2019-02-25T14:53:55.559Z,64.34
2019-02-25T14:56:26.014Z,64.34
2019-02-25T14:58:57.298Z,64.18
2019-02-25T15:01:29.852Z,64.49
2019-02-25T15:04:02.221Z,64.45
2019-02-25T15:06:34.264Z,64.17
2019-02-25T15:09:08.267Z,64.71
2019-02-25T15:11:38.184Z,64.87
2019-02-25T15:14:10.466Z,64.72
2019-02-25T15:16:40.434Z,65.36
2019-02-25T15:19:17.130Z,65.12
2019-02-25T15:21:50.097Z,65.44
2019-02-25T15:24:20.313Z,65.73
2019-02-25T15:26:51.747Z,65.93
2019-02-25T15:29:21.984Z,65.81
2019-02-25T15:31:53.038Z,65.35
2019-02-25T15:34:24.385Z,65.84
2019-02-25T15:36:56.449Z,65.83
2019-02-25T15:39:26.647Z,66.16
2019-02-25T15:42:00.815Z,65.61
2019-02-25T15:44:30.989Z,65.66
2019-02-25T15:47:02.537Z,65.98
2019-02-25T15:49:34.044Z,66.03
2019-02-25T15:52:07.877Z,65.90
2019-02-25T15:54:39.372Z,65.58
2019-02-25T15:57:10.023Z,65.66
2019-02-25T15:59:40.210Z,65.32
2019-02-25T16:02:14.093Z,65.40
2019-02-25T16:04:44.124Z,65.89
2019-02-25T16:07:15.482Z,65.23
2019-02-25T16:09:45.865Z,65.39
2019-02-25T16:12:16.111Z,65.13
2019-02-25T16:14:47.216Z,65.26
2019-02-25T16:17:18.276Z,65.15
2019-02-25T16:19:50.876Z,65.14
2019-02-25T16:22:20.510Z,65.81
2019-02-25T16:24:51.228Z,65.49
2019-02-25T16:27:23.128Z,65.32
2019-02-25T16:29:53.741Z,65.28
2019-02-25T16:32:26.231Z,65.64
2019-02-25T16:34:58.554Z,65.10
2019-02-25T16:37:29.129Z,65.19
2019-02-25T16:40:01.288Z,65.12
2019-02-25T16:42:32.416Z,65.10
2019-02-25T16:45:06.302Z,64.67
2019-02-25T16:47:37.764Z,64.74
2019-02-25T16:50:14.241Z,65.04
2019-02-25T16:52:46.844Z,65.38
2019-02-25T16:55:25.020Z,64.92
2019-02-25T16:57:54.679Z,65.24
2019-02-25T17:00:30.009Z,65.31
2019-02-25T17:03:03.482Z,65.29
2019-02-25T17:05:33.066Z,64.74
2019-02-25T17:08:04.031Z,65.05
2019-02-25T17:10:35.188Z,65.17
2019-02-25T17:13:06.358Z,65.32
2019-02-25T17:15:37.266Z,65.22
2019-02-25T17:18:07.520Z,65.42
2019-02-25T17:20:37.714Z,65.65
2019-02-25T17:23:10.092Z,65.91
2019-02-25T17:25:40.729Z,66.22
2019-02-25T17:28:15.315Z,66.22
2019-02-25T17:30:45.593Z,66.21
2019-02-25T17:33:16.517Z,66.11
2019-02-25T17:35:47.615Z,66.49
2019-02-25T17:38:20.888Z,66.84
2019-02-25T17:40:50.669Z,67.15
2019-02-25T17:43:20.895Z,67.02
2019-02-25T17:45:51.090Z,67.27
2019-02-25T17:48:21.413Z,67.77
2019-02-25T17:50:53.422Z,68.24
2019-02-25T17:53:24.491Z,68.11
2019-02-25T17:55:57.234Z,68.40
2019-02-25T17:58:27.492Z,68.36
2019-02-25T18:00:59.256Z,69.16
2019-02-25T18:03:29.635Z,69.25
2019-02-25T18:06:00.619Z,69.49
2019-02-25T18:08:32.228Z,69.46
2019-02-25T18:11:03.174Z,69.72
2019-02-25T18:13:35.260Z,69.44
2019-02-25T18:16:05.632Z,69.80
2019-02-25T18:18:36.624Z,69.94
2019-02-25T18:21:08.412Z,70.09
2019-02-25T18:23:39.314Z,70.42
2019-02-25T18:26:09.521Z,69.86
2019-02-25T18:28:41.409Z,70.31
2019-02-25T18:31:13.503Z,70.25
2019-02-25T18:33:45.845Z,70.30
2019-02-25T18:36:15.885Z,70.27
2019-02-25T18:38:48.033Z,70.51
2019-02-25T18:41:17.955Z,70.56
2019-02-25T18:43:49.398Z,70.54
2019-02-25T18:46:21.231Z,70.70
2019-02-25T18:48:51.904Z,70.67
2019-02-25T18:51:24.430Z,70.73
2019-02-25T18:53:54.877Z,70.64
2019-02-25T18:56:25.834Z,70.71
2019-02-25T18:59:07.122Z,71.02
2019-02-25T19:01:27.752Z,71.29
2019-02-25T19:03:59.038Z,71.27
2019-02-25T19:06:29.443Z,71.44
2019-02-25T19:08:59.652Z,71.44
2019-02-25T19:11:29.852Z,71.54
2019-02-25T19:14:03.184Z,71.38
2019-02-25T19:16:31.975Z,71.73
2019-02-25T19:19:03.972Z,71.55
2019-02-25T19:21:34.218Z,71.62
2019-02-25T19:24:05.578Z,71.60
2019-02-25T19:26:38.066Z,71.97
2019-02-25T19:29:09.126Z,71.97
2019-02-25T19:31:39.873Z,71.87
2019-02-25T19:34:15.456Z,72.21
2019-02-25T19:36:43.092Z,72.21
2019-02-25T19:39:14.383Z,71.98
2019-02-25T19:41:47.169Z,72.05
2019-02-25T19:44:17.180Z,72.05
2019-02-25T19:46:48.706Z,72.05
2019-02-25T19:49:20.686Z,71.45
2019-02-25T19:51:52.766Z,71.47
2019-02-25T19:54:23.018Z,71.29
2019-02-25T19:56:55.463Z,71.52
2019-02-25T19:59:26.855Z,71.39
2019-02-25T20:01:57.175Z,71.27
2019-02-25T20:04:27.481Z,71.59
2019-02-25T20:06:58.510Z,71.55
2019-02-25T20:09:29.651Z,71.15
2019-02-25T20:12:01.874Z,71.52
2019-02-25T20:14:31.905Z,71.09
2019-02-25T20:17:02.759Z,70.80
2019-02-25T20:19:33.204Z,70.91
2019-02-25T20:22:03.407Z,70.78
2019-02-25T20:24:33.636Z,70.89
2019-02-25T20:27:05.184Z,70.66
2019-02-25T20:29:36.546Z,70.39
2019-02-25T20:32:07.717Z,70.67
2019-02-25T20:34:38.173Z,70.52
2019-02-25T20:37:08.370Z,70.80
2019-02-25T20:39:40.465Z,70.69
2019-02-25T20:42:10.474Z,70.71
2019-02-25T20:44:40.582Z,70.57
2019-02-25T20:47:10.640Z,70.32
2019-02-25T20:49:40.810Z,69.94
2019-02-25T20:52:11.770Z,69.58
2019-02-25T20:54:43.727Z,69.66
2019-02-25T20:57:16.352Z,69.67
2019-02-25T20:59:48.560Z,69.81
2019-02-25T21:02:19.389Z,69.32
2019-02-25T21:04:52.145Z,69.16
2019-02-25T21:07:22.153Z,69.51
2019-02-25T21:09:52.316Z,69.35
2019-02-25T21:12:22.422Z,69.08
2019-02-25T21:14:52.655Z,69.02
2019-02-25T21:17:22.787Z,68.98
2019-02-25T21:19:52.945Z,68.83
2019-02-25T21:22:23.298Z,68.56
2019-02-25T21:24:55.894Z,69.03
2019-02-25T21:27:30.204Z,69.00
2019-02-25T21:30:01.572Z,68.80
2019-02-25T21:32:31.403Z,68.92
2019-02-25T21:35:04.175Z,68.48
2019-02-25T21:37:33.585Z,68.56
2019-02-25T21:40:05.173Z,68.86
2019-02-25T21:42:35.960Z,69.35
2019-02-25T21:45:08.622Z,69.15
2019-02-25T21:47:38.813Z,69.10
2019-02-25T21:50:11.990Z,68.80
2019-02-25T21:52:43.467Z,68.87
2019-02-25T21:55:14.567Z,69.10
2019-02-25T21:57:44.781Z,69.13
2019-02-25T22:00:23.950Z,69.10
2019-02-25T22:02:54.142Z,69.06
2019-02-25T22:05:24.381Z,68.86
2019-02-25T22:07:57.118Z,69.09
2019-02-25T22:10:26.573Z,69.09
2019-02-25T22:12:56.780Z,68.66
2019-02-25T22:15:27.040Z,68.91
2019-02-25T22:17:57.227Z,68.78
2019-02-25T22:20:27.462Z,68.93
2019-02-25T22:22:59.152Z,68.83
2019-02-25T22:25:29.599Z,68.96
2019-02-25T22:28:01.637Z,68.86
2019-02-25T22:30:32.606Z,68.91
2019-02-25T22:33:04.707Z,68.85
2019-02-25T22:35:37.378Z,68.56
2019-02-25T22:38:06.757Z,68.30
2019-02-25T22:40:38.826Z,68.24
2019-02-25T22:43:10.073Z,67.35
2019-02-25T22:45:42.021Z,67.67
2019-02-25T22:48:13.953Z,67.38
2019-02-25T22:50:44.209Z,67.21
2019-02-25T22:53:14.382Z,66.88
2019-02-25T22:55:45.376Z,67.15
2019-02-25T22:58:17.054Z,66.79
2019-02-25T23:00:50.547Z,66.44
2019-02-25T23:03:22.722Z,66.28
2019-02-25T23:05:53.451Z,66.11
2019-02-25T23:08:26.027Z,66.20
2019-02-25T23:10:56.432Z,66.30
2019-02-25T23:13:28.116Z,65.78
2019-02-25T23:15:58.583Z,66.10
2019-02-25T23:18:28.787Z,66.14
2019-02-25T23:21:01.121Z,66.06
2019-02-25T23:23:32.910Z,66.24
2019-02-25T23:26:02.765Z,65.83
2019-02-25T23:28:32.897Z,65.70
2019-02-25T23:31:04.260Z,65.86
2019-02-25T23:33:38.155Z,65.68
2019-02-25T23:36:08.394Z,66.04
2019-02-25T23:38:38.529Z,65.76
2019-02-25T23:41:09.998Z,66.23
2019-02-25T23:43:42.271Z,66.40
2019-02-25T23:46:12.358Z,66.09
2019-02-25T23:48:44.621Z,66.14
2019-02-25T23:51:16.541Z,66.30
2019-02-25T23:53:47.048Z,66.24
2019-02-25T23:56:22.594Z,66.36
2019-02-25T23:58:51.794Z,66.42
